Terminal Aerodrome Forecast
Issued by NWS Quad Cities IA IL

Home | Current Version | Previous Version | Text Only | Print | Product List | Glossary Off
Versions: 1 2 3 4 5 6 7 8 9 10 11 12 13 14 15 16 17 18

000
FTUS43 KDVN 062321
TAFDBQ
TAF
KDBQ 062321Z 0700/0724 19004KT P6SM VCSH SCT015 BKN050
     FM070200 32013KT 5SM BR OVC010
     FM071400 01008KT P6SM SCT030=

USA.gov is the U.S. government's official web portal to all federal, state and local government web resources and services.